Main page
METAR-TAF:

METAR-TAF

Airports :

Fairbanks International Airport

Fairbanks, Alaska, United States

latitude: 64-48-14N, longitude: 147-52-34W, elevation: 132 m

Current weather observation

The report was made 57 minutes ago, at 03:53 UTC
Wind 6 kt from the West/Southwest
Temperature 23°C
Humidity 36%
Pressure 1013 hPa
Visibility: 16.1 km
Scattered clouds at a height of 7000 ft
Scattered clouds at a height of 20000 ft

METAR: PAFA 250353Z 25006KT 10SM SCT070 SCT200 23/07 A2992 RMK AO2 SLP134 T02280067

Time: 20:50 (04:50 UTC)

Forecast

The report was made 40 minutes ago, at 04:10 UTC
Forecast valid from 25 at 04 UTC to 26 at 06 UTC
Wind 10 kt from the West
Visibility: 10 km
Scattered clouds at a height of 6000 ft
Broken clouds at a height of 20000 ft
From 25 at 0600 UTC
Wind 4 kt from the West/Northwest
Visibility: 10 km
Scattered clouds at a height of 6000 ft

TAF: PAFA 250410Z 2504/2606 26010KT P6SM SCT060 BKN200 FM250600 30004KT P6SM SCT060

Weather observations and forecasts of more than 4000 airports (METAR and TAF reports).

The available stations are represented by yellow and red dots on the map.

Hover mouse over dot to see the name of the station.

Then click to see weather observations and forecasts.

To change the map : click on the green buttons with a black cross to zoom in, on the green button with a dash to zoom out, or on the green arrows for adjacent maps.


METAR-TAF: